Time;durP1;ratioP1;P1;durP2;ratioP2;P2;SDS_P1;SDS_P2;PMS_P1;PMS_P2;Temp;Humidity;BMP_temperature;BMP_pressure;BME280_temperature;BME280_humidity;BME280_pressure;Samples;Min_cycle;Max_cycle;Signal;HPM_P1;HPM_P2
2023/01/05 00:00:48;;;;;;;23.90;4.57;;;;;;;10.54;93.38;101603.97;4976924;28;20029;-70
2023/01/05 00:03:13;;;;;;;27.63;4.68;;;;;;;10.55;93.34;101620.72;4976588;28;20027;-70
2023/01/05 00:05:38;;;;;;;28.42;4.60;;;;;;;10.55;93.36;101616.31;4976826;28;20037;-69
2023/01/05 00:08:04;;;;;;;28.65;4.88;;;;;;;10.55;93.27;101618.06;4973713;28;20030;-70
2023/01/05 00:24:11;;;;;;;25.15;4.57;;;;;;;10.46;92.56;101619.63;4975164;28;20146;-70
2023/01/05 00:26:36;;;;;;;33.28;5.65;;;;;;;10.46;92.38;101614.34;4974750;28;20031;-70
2023/01/05 00:29:01;;;;;;;24.23;4.82;;;;;;;10.45;92.58;101622.25;4957377;28;20381;-70
2023/01/05 00:31:27;;;;;;;27.60;4.30;;;;;;;10.41;92.82;101615.13;4974903;28;20038;-71
2023/01/05 00:33:52;;;;;;;22.52;4.70;;;;;;;10.40;92.72;101626.50;4973557;28;20453;-70
2023/01/05 00:36:17;;;;;;;21.13;4.38;;;;;;;10.39;92.49;101611.53;4974762;28;20034;-70
2023/01/05 00:38:43;;;;;;;24.38;4.38;;;;;;;10.39;92.86;101603.59;4974703;28;20031;-70
2023/01/05 00:41:08;;;;;;;29.50;5.05;;;;;;;10.33;92.68;101599.06;4974775;28;20391;-70
2023/01/05 00:43:33;;;;;;;30.88;5.00;;;;;;;10.34;92.64;101595.56;4974634;28;20038;-70
2023/01/05 00:45:59;;;;;;;26.42;4.90;;;;;;;10.31;92.82;101605.16;4974311;28;20046;-70
2023/01/05 00:48:24;;;;;;;27.70;4.68;;;;;;;10.30;92.65;101613.94;4974601;28;20053;-70
2023/01/05 00:50:50;;;;;;;30.80;4.97;;;;;;;10.22;92.60;101609.31;4974562;28;20030;-70
2023/01/05 00:53:15;;;;;;;28.55;4.82;;;;;;;10.21;92.96;101623.41;4974506;28;20416;-70
2023/01/05 00:55:40;;;;;;;26.27;4.72;;;;;;;10.16;92.93;101617.13;4974714;28;20061;-70
2023/01/05 00:58:06;;;;;;;26.98;4.88;;;;;;;10.13;92.92;101622.31;4941232;28;20054;-69
2023/01/05 01:00:31;;;;;;;26.52;5.07;;;;;;;10.07;93.26;101611.59;4974277;28;20023;-70
2023/01/05 01:02:57;;;;;;;34.33;4.60;;;;;;;10.08;93.14;101617.78;4957103;28;20532;-70
2023/01/05 01:05:22;;;;;;;24.83;4.53;;;;;;;10.06;93.18;101616.84;4956960;28;20015;-70
2023/01/05 01:07:48;;;;;;;21.67;4.45;;;;;;;10.01;93.42;101617.59;4974328;28;20069;-69
2023/01/05 01:10:14;;;;;;;28.30;4.60;;;;;;;10.01;93.19;101620.25;4974312;28;20031;-70
2023/01/05 01:12:39;;;;;;;25.33;4.38;;;;;;;9.99;93.17;101618.44;4974267;28;20392;-70
2023/01/05 01:15:06;;;;;;;25.50;4.15;;;;;;;9.93;93.62;101620.91;4957162;28;20030;-70
2023/01/05 01:17:32;;;;;;;25.52;4.60;;;;;;;9.90;93.61;101620.84;4974323;28;20026;-70
2023/01/05 01:19:57;;;;;;;29.42;5.00;;;;;;;9.89;93.71;101626.97;4974216;28;20504;-70
2023/01/05 01:22:24;;;;;;;22.45;4.30;;;;;;;9.85;94.00;101626.00;4974134;28;20082;-70
2023/01/05 01:24:50;;;;;;;25.58;5.55;;;;;;;9.81;94.03;101623.22;4974203;28;20027;-70
2023/01/05 01:27:16;;;;;;;30.83;5.03;;;;;;;9.82;94.21;101627.69;4974143;28;20054;-69
2023/01/05 01:29:41;;;;;;;20.85;4.00;;;;;;;9.78;94.11;101631.97;4974087;28;20488;-70
2023/01/05 01:32:07;;;;;;;27.13;4.78;;;;;;;9.74;94.08;101640.66;4974185;28;20057;-69
2023/01/05 01:34:32;;;;;;;29.15;5.38;;;;;;;9.72;94.51;101643.28;4977677;28;20058;-69
2023/01/05 01:36:59;;;;;;;29.63;4.20;;;;;;;9.71;94.69;101644.09;4978216;28;20430;-70
2023/01/05 01:39:24;;;;;;;24.38;4.68;;;;;;;9.68;94.43;101643.16;4978025;28;20031;-70
2023/01/05 01:41:49;;;;;;;27.23;4.18;;;;;;;9.68;94.93;101648.44;4978194;28;20492;-70
2023/01/05 01:44:47;;;;;;;26.67;4.97;;;;;;;9.68;94.86;101646.69;4977903;28;20437;-69
2023/01/05 01:47:47;;;;;;;23.05;4.50;;;;;;;9.67;94.87;101650.16;4977695;28;20559;-70
2023/01/05 01:50:28;;;;;;;26.52;4.80;;;;;;;9.65;94.84;101658.88;4977416;28;20129;-70
2023/01/05 01:52:58;;;;;;;23.25;4.63;;;;;;;9.64;95.30;101655.34;4977807;28;20030;-69
2023/01/05 01:55:25;;;;;;;32.92;5.03;;;;;;;9.65;95.01;101669.44;4977820;28;20103;-70
2023/01/05 01:57:52;;;;;;;21.05;4.05;;;;;;;9.63;95.16;101668.50;4977641;28;20035;-70
2023/01/05 02:00:18;;;;;;;26.25;4.63;;;;;;;9.61;95.38;101663.19;4977494;28;20130;-70
2023/01/05 02:02:47;;;;;;;26.17;4.72;;;;;;;9.63;95.71;101677.28;4977515;28;20110;-70
2023/01/05 02:05:15;;;;;;;31.05;4.60;;;;;;;9.65;95.76;101664.16;4977634;28;20026;-70
2023/01/05 02:07:46;;;;;;;29.48;5.20;;;;;;;9.68;96.08;101675.72;4960314;28;20440;-70
2023/01/05 02:10:15;;;;;;;30.20;4.57;;;;;;;9.69;95.73;101669.56;4977505;28;20116;-71
2023/01/05 02:12:43;;;;;;;29.63;4.60;;;;;;;9.72;95.71;101674.94;4977432;28;20019;-70
2023/01/05 02:15:11;;;;;;;32.72;4.95;;;;;;;9.73;95.89;101676.72;4977305;28;20027;-70
2023/01/05 02:17:43;;;;;;;28.10;5.25;;;;;;;9.73;96.03;101676.72;4977597;28;20039;-70
2023/01/05 02:20:37;;;;;;;30.60;4.97;;;;;;;9.76;96.24;101679.44;4977398;28;20101;-69
2023/01/05 02:23:38;;;;;;;30.70;5.20;;;;;;;9.81;96.09;101676.00;4961533;28;20035;-69
2023/01/05 02:26:41;;;;;;;29.38;5.05;;;;;;;9.84;95.64;101679.63;4977239;28;20114;-69
2023/01/05 02:29:42;;;;;;;27.10;4.65;;;;;;;9.84;95.71;101684.03;4977181;28;20022;-70
2023/01/05 02:32:15;;;;;;;27.45;4.78;;;;;;;9.88;95.79;101691.19;4977324;28;20102;-69
2023/01/05 02:35:01;;;;;;;22.85;4.30;;;;;;;9.89;96.01;101690.31;4977105;28;20527;-70
2023/01/05 02:37:35;;;;;;;24.58;4.32;;;;;;;9.90;95.92;101690.38;4977153;28;20030;-69
2023/01/05 02:40:22;;;;;;;36.17;5.22;;;;;;;9.89;96.10;101690.31;4959605;28;20050;-69
2023/01/05 02:42:52;;;;;;;37.72;5.68;;;;;;;9.92;95.82;101685.13;4976856;28;20556;-69
2023/01/05 02:45:21;;;;;;;32.08;4.60;;;;;;;9.92;96.36;101691.28;4975366;28;20046;-69
2023/01/05 02:47:47;;;;;;;32.08;4.78;;;;;;;9.92;95.87;101693.94;4976912;28;20451;-69
2023/01/05 02:50:20;;;;;;;26.88;4.43;;;;;;;9.93;95.75;101690.44;4959604;28;20123;-70
2023/01/05 02:52:54;;;;;;;24.27;4.60;;;;;;;9.96;95.63;101694.91;4976756;28;20031;-70
2023/01/05 02:55:26;;;;;;;26.25;4.75;;;;;;;9.99;95.38;101695.00;4976793;28;20042;-69
2023/01/05 02:57:58;;;;;;;;;;;;;;;10.03;95.51;101687.22;4977101;28;20030;-69
2023/01/05 03:00:32;;;;;;;23.85;4.65;;;;;;;10.01;95.19;101685.38;4976549;28;20012;-69
2023/01/05 03:03:11;;;;;;;31.70;5.40;;;;;;;10.01;95.43;101690.66;4959228;28;20066;-69
2023/01/05 03:05:47;;;;;;;27.90;4.90;;;;;;;10.04;95.59;101685.47;4976539;28;20073;-69
2023/01/05 03:08:21;;;;;;;26.65;4.07;;;;;;;10.02;95.49;101681.88;4976483;28;20034;-69
2023/01/05 03:14:46;;;;;;;25.58;4.93;;;;;;;10.05;95.81;101676.69;4897963;29;20041;-69
2023/01/05 03:17:16;;;;;;;27.55;5.15;;;;;;;10.05;95.95;101692.53;4878099;29;20047;-69
2023/01/05 03:19:43;;;;;;;29.33;4.85;;;;;;;10.06;96.02;101704.84;4955275;28;20041;-69
2023/01/05 03:36:38;;;;;;;25.63;4.50;;;;;;;10.14;94.97;101697.16;4976232;28;20045;-70
2023/01/05 03:39:06;;;;;;;22.83;4.20;;;;;;;10.16;94.86;101712.19;4975902;28;20089;-69
2023/01/05 03:41:31;;;;;;;23.15;4.35;;;;;;;10.17;94.85;101702.53;4958831;28;20039;-69
2023/01/05 03:43:57;;;;;;;28.98;4.85;;;;;;;10.18;94.62;101697.25;4975808;28;20023;-70
2023/01/05 03:46:22;;;;;;;27.52;4.80;;;;;;;10.19;94.44;101699.06;4975549;28;20051;-70
2023/01/05 03:48:48;;;;;;;23.85;4.47;;;;;;;10.22;94.24;101696.50;4974467;28;20033;-69
2023/01/05 03:51:15;;;;;;;25.73;4.18;;;;;;;10.25;94.29;101707.19;4975647;28;20062;-69
2023/01/05 03:53:41;;;;;;;27.48;4.53;;;;;;;10.22;94.36;101699.13;4975553;28;20557;-69
2023/01/05 03:56:06;;;;;;;24.00;4.38;;;;;;;10.24;94.26;101704.47;4975258;28;20113;-69
2023/01/05 03:58:32;;;;;;;25.73;4.95;;;;;;;10.24;94.68;101700.13;4975359;28;20034;-69
2023/01/05 04:00:57;;;;;;;30.73;4.80;;;;;;;10.04;93.94;101685.47;4975505;28;20019;-69
2023/01/05 04:03:23;;;;;;;27.55;4.57;;;;;;;10.27;94.23;101712.50;4975292;28;20026;-69
2023/01/05 04:05:48;;;;;;;26.98;4.95;;;;;;;10.26;93.91;101703.69;4975508;28;20055;-70
2023/01/05 04:08:13;;;;;;;29.17;4.25;;;;;;;10.30;94.10;101702.00;4975374;28;20039;-69
2023/01/05 04:10:39;;;;;;;28.77;4.65;;;;;;;10.32;94.18;101700.31;4974245;28;20511;-69
2023/01/05 04:13:04;;;;;;;30.35;4.88;;;;;;;10.30;93.73;101702.00;4957911;28;20066;-69
2023/01/05 04:15:30;;;;;;;26.85;4.38;;;;;;;10.35;93.77;101699.47;4975260;28;20027;-70
2023/01/05 04:17:55;;;;;;;25.63;4.57;;;;;;;10.34;93.65;101701.25;4975165;28;20453;-70
2023/01/05 04:20:20;;;;;;;27.17;4.07;;;;;;;10.37;93.58;101706.59;4960446;28;20135;-69
2023/01/05 04:22:46;;;;;;;31.00;4.70;;;;;;;10.36;94.12;101695.97;4955682;29;20102;-70
2023/01/05 04:25:11;;;;;;;31.58;4.78;;;;;;;10.36;93.92;101711.84;4955728;29;20027;-70
2023/01/05 04:27:37;;;;;;;29.23;4.95;;;;;;;10.34;93.88;101708.28;4938594;29;20392;-69
2023/01/05 04:30:03;;;;;;;31.77;4.82;;;;;;;10.34;94.24;101710.91;4955450;29;20031;-70
2023/01/05 04:32:29;;;;;;;31.13;4.35;;;;;;;10.34;93.85;101711.81;4955550;28;20035;-69
2023/01/05 04:34:54;;;;;;;25.58;4.13;;;;;;;10.38;93.75;101704.84;4955650;29;20037;-68
2023/01/05 04:37:19;;;;;;;27.60;4.85;;;;;;;10.39;93.44;101698.72;4955514;29;20078;-69
2023/01/05 04:39:45;;;;;;;29.42;4.75;;;;;;;10.37;93.79;101705.72;4955488;29;20034;-70
2023/01/05 04:42:10;;;;;;;29.58;5.47;;;;;;;10.39;93.71;101717.19;4938323;29;20392;-70
2023/01/05 04:44:36;;;;;;;32.30;4.93;;;;;;;10.35;94.06;101707.41;4938251;29;20507;-70
2023/01/05 04:47:01;;;;;;;27.50;4.90;;;;;;;10.38;94.32;101718.97;4955205;28;20078;-70
2023/01/05 04:49:26;;;;;;;24.75;5.15;;;;;;;10.40;93.62;101709.31;4938259;29;20031;-69
2023/01/05 04:51:52;;;;;;;21.83;4.40;;;;;;;10.39;94.00;101709.28;4938219;29;20023;-70
2023/01/05 04:54:17;;;;;;;25.40;4.50;;;;;;;10.40;93.77;101721.63;4955264;29;20062;-70
2023/01/05 04:56:43;;;;;;;31.98;5.22;;;;;;;10.37;94.32;101703.06;4955195;28;20138;-69
2023/01/05 04:59:08;;;;;;;38.25;4.70;;;;;;;10.39;93.76;101719.84;4937894;29;20114;-69
2023/01/05 05:01:34;;;;;;;30.55;4.45;;;;;;;10.41;94.02;101720.78;4955261;29;20039;-69
2023/01/05 05:03:59;;;;;;;26.42;5.32;;;;;;;10.41;93.64;101713.75;4955071;29;20170;-69
2023/01/05 05:06:25;;;;;;;27.15;4.50;;;;;;;10.41;93.86;101720.78;4955287;28;20034;-69
2023/01/05 05:08:50;;;;;;;28.67;4.47;;;;;;;10.40;94.06;101722.50;4954338;28;20034;-69
2023/01/05 05:11:16;;;;;;;24.63;5.25;;;;;;;10.42;93.83;101719.94;4937830;29;20397;-69
2023/01/05 05:13:41;;;;;;;31.58;4.65;;;;;;;10.45;93.67;101730.59;4937810;29;20114;-69
2023/01/05 05:16:07;;;;;;;32.25;5.30;;;;;;;10.43;93.77;101737.56;4954961;28;20019;-69
2023/01/05 05:18:32;;;;;;;30.73;5.50;;;;;;;10.45;93.69;101742.06;4954977;29;20119;-69
2023/01/05 05:20:57;;;;;;;29.60;4.80;;;;;;;10.42;93.43;101741.97;4954974;28;20031;-69
2023/01/05 05:23:23;;;;;;;39.95;5.07;;;;;;;10.45;93.48;101743.81;4954843;29;20433;-69
2023/01/05 05:25:52;;;;;;;35.67;5.30;;;;;;;10.46;93.46;101740.28;4954848;29;20063;-69
2023/01/05 05:28:18;;;;;;;25.80;5.00;;;;;;;10.47;93.40;101742.06;4938165;29;20465;-69
2023/01/05 05:30:44;;;;;;;28.23;4.40;;;;;;;10.47;93.16;101750.88;4954857;29;20024;-69
2023/01/05 05:33:10;;;;;;;34.85;5.20;;;;;;;10.49;92.94;101748.28;4954722;29;20035;-69
2023/01/05 05:35:35;;;;;;;30.73;4.90;;;;;;;10.49;92.53;101750.91;4954760;28;20123;-69
2023/01/05 05:38:00;;;;;;;31.83;4.53;;;;;;;10.51;93.03;101751.88;4954837;29;20055;-70
2023/01/05 05:40:27;;;;;;;30.45;4.88;;;;;;;10.48;93.19;101755.31;4937436;29;20118;-69
2023/01/05 05:42:53;;;;;;;24.27;4.85;;;;;;;10.49;93.01;101754.50;4937780;29;20023;-69
2023/01/05 05:45:18;;;;;;;37.25;4.90;;;;;;;10.50;93.15;101764.19;4953162;28;20126;-69
2023/01/05 05:47:44;;;;;;;31.00;5.43;;;;;;;10.51;93.45;101759.78;4954674;29;20162;-69
2023/01/05 05:50:09;;;;;;;33.20;5.35;;;;;;;10.46;93.11;101753.50;4937388;29;20042;-69
2023/01/05 05:52:35;;;;;;;37.33;5.22;;;;;;;10.47;93.28;101750.88;4954577;29;20394;-69
2023/01/05 05:55:00;;;;;;;31.00;4.75;;;;;;;10.47;93.52;101769.38;4937508;29;20035;-69
2023/01/05 05:57:26;;;;;;;29.38;4.80;;;;;;;10.49;93.34;101774.69;4954551;29;20066;-69
2023/01/05 05:59:52;;;;;;;27.27;4.43;;;;;;;10.49;93.29;101772.97;4954482;29;20042;-69
2023/01/05 06:02:18;;;;;;;33.22;5.50;;;;;;;10.48;93.47;101783.50;4937345;29;20035;-69
2023/01/05 06:04:43;;;;;;;35.83;5.25;;;;;;;10.49;93.28;101787.91;4954541;28;20035;-69
2023/01/05 06:07:09;;;;;;;27.92;5.05;;;;;;;10.47;94.25;101785.25;4954515;29;20027;-68
2023/01/05 06:09:34;;;;;;;27.23;4.78;;;;;;;10.47;94.11;101794.91;4954528;29;20477;-68
2023/01/05 06:12:00;;;;;;;28.90;5.10;;;;;;;10.41;94.37;101790.38;4937372;29;20034;-69
2023/01/05 06:14:25;;;;;;;26.55;4.90;;;;;;;10.45;94.75;101786.06;4937218;29;20477;-69
2023/01/05 06:16:50;;;;;;;27.40;4.53;;;;;;;10.43;94.53;101788.66;4954470;29;20078;-69
2023/01/05 06:19:16;;;;;;;25.80;4.63;;;;;;;10.42;94.54;101789.53;4955807;28;20027;-70
2023/01/05 06:21:41;;;;;;;28.75;4.57;;;;;;;10.44;94.50;101802.75;4957854;29;20473;-69
2023/01/05 06:24:07;;;;;;;27.20;5.15;;;;;;;10.42;95.16;101797.44;4958168;29;20058;-69
2023/01/05 06:26:32;;;;;;;28.10;4.20;;;;;;;10.42;94.45;101810.66;4924991;29;20027;-69
2023/01/05 06:28:57;;;;;;;34.00;4.60;;;;;;;10.40;94.71;101812.34;4940804;29;20396;-69
2023/01/05 06:31:23;;;;;;;37.88;5.30;;;;;;;10.41;94.72;101821.19;4957759;28;20042;-69
2023/01/05 06:33:48;;;;;;;31.05;5.00;;;;;;;10.38;94.95;101827.28;4957850;28;20039;-69
2023/01/05 06:36:14;;;;;;;33.33;6.22;;;;;;;10.39;94.77;101823.78;4957772;28;20027;-69
2023/01/05 06:38:39;;;;;;;32.20;5.13;;;;;;;10.37;95.25;101820.22;4957952;28;20035;-69
2023/01/05 06:41:04;;;;;;;33.72;5.38;;;;;;;10.37;95.23;101824.59;4957767;28;20023;-70
2023/01/05 06:43:30;;;;;;;27.70;4.80;;;;;;;10.36;95.36;101828.06;4940404;29;20536;-69
2023/01/05 06:45:55;;;;;;;41.78;5.47;;;;;;;10.35;95.62;101828.94;4957423;28;20416;-69
2023/01/05 06:48:20;;;;;;;39.20;5.28;;;;;;;10.34;95.58;101843.00;4957557;29;20034;-69
2023/01/05 06:50:46;;;;;;;31.60;4.78;;;;;;;10.25;95.50;101830.44;4957501;29;20038;-69
2023/01/05 06:53:11;;;;;;;36.72;5.57;;;;;;;10.34;95.81;101843.91;4957470;29;20039;-69
2023/01/05 06:55:37;;;;;;;30.65;5.35;;;;;;;10.33;95.48;101842.13;4957377;28;20024;-69
2023/01/05 06:58:03;;;;;;;33.45;4.82;;;;;;;10.32;95.44;101842.97;4957466;29;20027;-69
2023/01/05 07:00:28;;;;;;;28.05;6.15;;;;;;;10.33;95.21;101852.69;4956889;28;20040;-69
2023/01/05 07:02:54;;;;;;;34.33;5.25;;;;;;;10.31;95.60;101849.09;4955716;28;20035;-69
2023/01/05 07:05:19;;;;;;;29.90;4.97;;;;;;;10.32;95.10;101853.53;4956226;28;20032;-69
2023/01/05 07:07:45;;;;;;;40.85;6.22;;;;;;;10.34;95.02;101851.81;4955978;29;20485;-68
2023/01/05 07:10:10;;;;;;;33.63;4.53;;;;;;;10.34;95.25;101853.56;4956071;29;20027;-69
2023/01/05 07:12:36;;;;;;;38.80;5.50;;;;;;;10.33;95.30;101852.69;4956004;28;20027;-69
2023/01/05 07:15:01;;;;;;;26.23;4.60;;;;;;;10.33;95.61;101841.22;4955829;28;20028;-69
2023/01/05 07:17:27;;;;;;;37.53;5.43;;;;;;;10.34;95.69;101853.56;4956510;28;20147;-68
2023/01/05 07:19:52;;;;;;;31.02;5.15;;;;;;;10.34;95.48;101851.81;4956983;29;20019;-68
2023/01/05 07:22:18;;;;;;;36.45;5.72;;;;;;;10.34;95.89;101859.75;4939682;29;20072;-69
2023/01/05 07:24:43;;;;;;;35.17;5.55;;;;;;;10.34;95.60;101858.84;4956740;29;20401;-69
2023/01/05 07:27:08;;;;;;;25.25;4.28;;;;;;;10.33;95.61;101862.38;4956987;28;20397;-69
2023/01/05 07:29:34;;;;;;;36.05;5.35;;;;;;;10.32;95.67;101853.53;4939325;29;20481;-69
2023/01/05 07:31:59;;;;;;;36.65;5.95;;;;;;;10.33;95.43;101865.91;4956032;28;20392;-69
2023/01/05 07:34:25;;;;;;;27.55;4.63;;;;;;;10.33;95.88;101865.91;4939430;29;20120;-69
2023/01/05 07:36:50;;;;;;;29.45;5.03;;;;;;;10.33;95.73;101865.91;4956652;29;20117;-68
2023/01/05 07:39:16;;;;;;;33.05;5.53;;;;;;;10.33;95.39;101879.09;4956686;28;20023;-69
2023/01/05 07:41:42;;;;;;;32.47;5.13;;;;;;;10.31;95.28;101875.50;4956592;29;20445;-69
2023/01/05 07:44:07;;;;;;;35.63;5.35;;;;;;;10.31;95.77;101883.44;4956476;29;20481;-68
2023/01/05 07:46:33;;;;;;;33.28;5.18;;;;;;;10.30;95.70;101879.00;4956229;29;20074;-70
2023/01/05 07:48:59;;;;;;;37.90;5.15;;;;;;;10.28;95.59;101878.09;4956412;29;20024;-69
2023/01/05 07:51:24;;;;;;;35.97;5.57;;;;;;;10.27;95.74;101871.88;4956370;28;20035;-69
2023/01/05 07:53:50;;;;;;;34.90;5.88;;;;;;;10.27;95.67;101881.56;4956270;29;20039;-68
2023/01/05 07:56:15;;;;;;;33.55;4.93;;;;;;;10.27;95.55;101886.84;4956262;29;20031;-70
2023/01/05 07:58:41;;;;;;;34.08;5.63;;;;;;;10.27;95.94;101879.81;4956129;28;20124;-69
2023/01/05 08:01:11;;;;;;;28.65;4.95;;;;;;;10.28;95.88;101889.53;4956190;28;20366;-69
2023/01/05 08:03:37;;;;;;;38.97;5.10;;;;;;;10.27;95.64;101890.38;4956003;29;20032;-69
2023/01/05 08:06:07;;;;;;;35.80;5.20;;;;;;;10.29;95.48;101887.78;4956105;29;20122;-69
2023/01/05 08:08:33;;;;;;;31.23;5.15;;;;;;;10.28;95.59;101896.56;4956116;29;20030;-68
2023/01/05 08:11:01;;;;;;;30.33;5.65;;;;;;;10.27;95.88;101908.84;4956011;29;20027;-69
2023/01/05 08:16:11;;;;;;;34.55;4.97;;;;;;;10.31;95.68;101909.84;4956340;29;20055;-69
2023/01/05 08:18:36;;;;;;;39.83;5.68;;;;;;;10.32;95.69;101913.38;4955869;28;20020;-68
2023/01/05 08:21:03;;;;;;;31.50;5.88;;;;;;;10.31;95.61;101920.41;4955868;29;20038;-69
2023/01/05 08:23:29;;;;;;;39.83;5.07;;;;;;;10.35;95.24;101918.75;4955697;29;20051;-69
2023/01/05 08:25:55;;;;;;;33.88;5.40;;;;;;;10.33;95.19;101915.19;4955730;28;20110;-69
2023/01/05 08:28:23;;;;;;;40.03;5.82;;;;;;;10.32;95.48;101916.94;4955723;29;20062;-69
2023/01/05 08:30:48;;;;;;;35.15;5.50;;;;;;;10.33;95.55;101915.19;4955461;29;20031;-68
2023/01/05 08:33:14;;;;;;;32.95;5.30;;;;;;;10.34;95.88;101917.88;4938412;29;20129;-68
2023/01/05 08:35:43;;;;;;;31.48;5.57;;;;;;;10.38;95.49;101924.16;4954450;28;20030;-69
2023/01/05 08:38:10;;;;;;;29.02;5.10;;;;;;;10.37;95.24;101922.38;4955468;29;20078;-69
2023/01/05 08:40:36;;;;;;;34.60;5.53;;;;;;;10.38;94.92;101922.41;4955471;28;20046;-68
2023/01/05 08:43:04;;;;;;;33.42;5.38;;;;;;;10.37;94.96;101928.53;4955314;28;20027;-68
2023/01/05 08:45:31;;;;;;;42.35;6.03;;;;;;;10.39;95.28;101942.66;4938329;29;20457;-68
2023/01/05 08:47:56;;;;;;;36.90;5.45;;;;;;;10.41;94.59;101945.38;4955443;29;20024;-68
2023/01/05 08:50:21;;;;;;;35.45;5.97;;;;;;;10.40;94.89;101944.44;4955603;29;20388;-68
2023/01/05 08:52:47;;;;;;;29.92;5.43;;;;;;;10.44;95.14;101948.09;4938222;29;20480;-67
2023/01/05 08:55:13;;;;;;;40.83;6.22;;;;;;;10.45;94.95;101950.78;4955386;28;20075;-68
2023/01/05 08:57:38;;;;;;;37.00;6.63;;;;;;;10.47;95.15;101946.44;4955439;29;20023;-68
2023/01/05 09:00:04;;;;;;;40.08;6.28;;;;;;;10.48;94.64;101950.84;4937810;29;20452;-68
2023/01/05 09:02:30;;;;;;;30.33;5.38;;;;;;;10.49;94.62;101957.97;4955080;29;20045;-68
2023/01/05 09:04:56;;;;;;;35.17;5.05;;;;;;;10.50;94.61;101953.56;4955112;29;20023;-68
2023/01/05 09:07:21;;;;;;;35.63;6.18;;;;;;;10.52;94.56;101963.31;4955047;28;20477;-68
2023/01/05 09:09:47;;;;;;;36.05;5.43;;;;;;;10.53;94.15;101966.84;4954957;28;20059;-68
2023/01/05 09:12:12;;;;;;;31.58;6.10;;;;;;;10.55;94.41;101958.97;4955158;29;20027;-68
2023/01/05 09:14:38;;;;;;;36.40;5.15;;;;;;;10.59;93.88;101971.44;4955198;29;20042;-68
2023/01/05 09:17:03;;;;;;;34.70;5.57;;;;;;;10.54;94.15;101971.31;4954993;28;20500;-68
2023/01/05 09:19:29;;;;;;;41.20;5.75;;;;;;;10.60;93.99;101975.88;4954707;29;20024;-68
2023/01/05 09:21:54;;;;;;;34.70;5.15;;;;;;;10.65;94.66;101980.41;4954665;29;20462;-68
2023/01/05 09:24:20;;;;;;;33.88;5.80;;;;;;;10.69;94.41;101978.75;4952678;28;20027;-68
2023/01/05 09:26:46;;;;;;;33.30;5.18;;;;;;;10.72;93.60;101985.03;4936289;29;20117;-68
2023/01/05 09:29:12;;;;;;;39.70;5.28;;;;;;;10.73;93.46;101984.19;4954145;29;20024;-68
2023/01/05 09:31:39;;;;;;;33.38;5.55;;;;;;;10.76;93.93;101992.22;4954255;28;20023;-68
2023/01/05 09:34:05;;;;;;;36.38;5.95;;;;;;;10.75;93.38;101987.78;4954425;29;20035;-68
2023/01/05 09:36:31;;;;;;;36.50;5.80;;;;;;;10.79;94.01;101996.66;4954284;28;20036;-68
2023/01/05 09:38:57;;;;;;;31.85;5.38;;;;;;;10.82;93.35;102002.06;4954926;29;20040;-68
2023/01/05 09:41:34;;;;;;;33.60;5.68;;;;;;;10.88;93.57;101998.72;4937602;29;20110;-68
2023/01/05 09:44:10;;;;;;;28.73;5.63;;;;;;;10.91;93.25;102004.94;4954630;29;20111;-68
2023/01/05 09:46:40;;;;;;;37.95;5.22;;;;;;;10.91;93.21;102004.06;4954407;29;20058;-67
2023/01/05 09:49:11;;;;;;;31.25;5.13;;;;;;;10.91;92.45;102002.31;4937723;29;20046;-67
2023/01/05 09:51:37;;;;;;;34.40;5.35;;;;;;;10.93;93.10;102007.66;4954684;29;20093;-68
2023/01/05 09:54:02;;;;;;;29.67;4.78;;;;;;;10.95;93.40;102008.56;4955453;28;20035;-68
2023/01/05 09:56:35;;;;;;;32.53;5.28;;;;;;;10.95;92.65;102011.22;4958401;29;20019;-67
2023/01/05 09:59:14;;;;;;;31.35;6.28;;;;;;;10.96;93.30;102015.66;4958138;29;20494;-68
2023/01/05 10:01:40;;;;;;;34.28;5.55;;;;;;;11.00;93.32;102014.88;4958303;29;20034;-68
2023/01/05 10:04:13;;;;;;;38.67;5.38;;;;;;;10.99;93.25;102015.75;4958120;28;20493;-68
2023/01/05 10:06:43;;;;;;;32.17;5.97;;;;;;;11.01;92.39;102019.34;4956858;29;20035;-68
2023/01/05 10:09:15;;;;;;;31.67;5.65;;;;;;;10.99;92.42;102015.75;4958179;29;20385;-68
2023/01/05 10:14:34;;;;;;;40.42;6.13;;;;;;;11.01;92.61;102011.41;4958186;29;20042;-68
2023/01/05 10:17:00;;;;;;;38.40;5.57;;;;;;;11.03;92.58;102020.25;4958145;29;20059;-68
2023/01/05 10:19:27;;;;;;;42.58;5.95;;;;;;;11.01;91.94;102019.34;4957955;28;20059;-68
2023/01/05 10:22:05;;;;;;;43.55;6.65;;;;;;;11.00;92.51;102023.72;4957670;29;20388;-67
2023/01/05 10:24:47;;;;;;;37.88;5.43;;;;;;;11.02;92.73;102021.13;4940535;29;20039;-67
2023/01/05 10:27:25;;;;;;;34.97;5.93;;;;;;;11.00;92.97;102031.66;4957859;29;20039;-67
2023/01/05 10:30:09;;;;;;;34.65;7.28;;;;;;;11.02;93.20;102037.00;4957562;29;20535;-68
2023/01/05 10:33:01;;;;;;;38.45;5.45;;;;;;;11.02;93.18;102035.25;4957777;29;20023;-68
2023/01/05 10:35:46;;;;;;;33.22;5.63;;;;;;;11.03;92.86;102039.69;4940487;29;20388;-68
2023/01/05 10:38:30;;;;;;;31.83;5.43;;;;;;;11.03;92.70;102039.69;4957610;28;20031;-68
2023/01/05 10:41:07;;;;;;;32.40;5.40;;;;;;;11.04;92.80;102044.09;4957632;29;20034;-67
2023/01/05 10:44:11;;;;;;;31.13;5.68;;;;;;;11.08;93.72;102044.19;4957475;29;20027;-67
2023/01/05 10:46:40;;;;;;;33.15;5.35;;;;;;;11.11;93.20;102039.00;4945094;28;20098;-68
2023/01/05 10:49:06;;;;;;;40.50;5.80;;;;;;;11.13;93.04;102034.63;4957443;29;20485;-67
2023/01/05 10:51:32;;;;;;;30.88;6.18;;;;;;;11.14;92.84;102028.50;4940260;29;20034;-68
2023/01/05 10:53:58;;;;;;;39.03;5.70;;;;;;;11.16;92.44;102040.03;4957265;28;20114;-67
2023/01/05 10:56:27;;;;;;;44.72;6.00;;;;;;;11.14;93.13;102049.69;4957342;28;20121;-67
2023/01/05 10:59:06;;;;;;;29.98;5.47;;;;;;;11.14;93.50;102037.34;4957135;29;20388;-68
2023/01/05 11:01:34;;;;;;;25.83;5.30;;;;;;;11.13;92.93;102043.47;4957172;28;20134;-67
2023/01/05 11:04:22;;;;;;;38.88;6.03;;;;;;;11.12;93.31;102035.50;4956976;28;20031;-68
2023/01/05 11:06:48;;;;;;;31.85;5.43;;;;;;;11.13;92.41;102050.50;4956327;28;20106;-67
2023/01/05 11:09:20;;;;;;;41.13;6.18;;;;;;;11.14;92.52;102044.38;4957017;29;20485;-67
2023/01/05 11:11:57;;;;;;;33.35;5.88;;;;;;;11.15;92.99;102059.41;4939740;29;20027;-67
2023/01/05 11:14:23;;;;;;;31.33;5.22;;;;;;;11.15;92.76;102049.72;4957188;29;20106;-67
2023/01/05 11:16:51;;;;;;;34.90;5.75;;;;;;;11.20;92.79;102045.44;4957137;29;20059;-67
2023/01/05 11:19:21;;;;;;;36.20;6.03;;;;;;;11.29;92.98;102048.31;4957151;28;20165;-67
2023/01/05 11:21:46;;;;;;;31.73;5.93;;;;;;;11.41;91.32;102052.16;4956765;28;20481;-67
2023/01/05 11:24:28;;;;;;;37.65;5.85;;;;;;;11.53;91.44;102049.84;4961897;28;20030;-67
2023/01/05 11:27:00;;;;;;;45.72;6.38;;;;;;;11.69;90.88;102052.03;4976368;28;20027;-67
2023/01/05 11:29:26;;;;;;;33.25;5.70;;;;;;;11.86;90.79;102039.25;4976117;28;20031;-67
2023/01/05 11:31:59;;;;;;;34.50;5.50;;;;;;;12.06;90.74;102050.31;4975908;28;20077;-67
2023/01/05 11:34:34;;;;;;;33.22;5.80;;;;;;;12.13;88.19;102044.31;4976183;28;20030;-68
2023/01/05 11:37:06;;;;;;;36.78;6.22;;;;;;;12.13;87.90;102036.38;4976043;28;20026;-67
2023/01/05 11:39:37;;;;;;;32.20;5.50;;;;;;;12.23;88.03;102029.50;4975756;28;20061;-67
2023/01/05 11:42:10;;;;;;;33.20;5.72;;;;;;;12.35;87.06;102035.09;4975803;28;20034;-67
2023/01/05 11:44:36;;;;;;;29.95;6.10;;;;;;;12.38;86.36;102035.19;4975717;28;20161;-68
2023/01/05 11:47:05;;;;;;;37.50;5.80;;;;;;;12.35;86.32;102031.56;4975403;28;20054;-67
2023/01/05 11:49:30;;;;;;;36.03;6.03;;;;;;;12.21;85.78;102029.50;4958158;28;20117;-68
2023/01/05 11:51:57;;;;;;;37.80;6.32;;;;;;;12.06;85.91;102028.22;4975492;28;20166;-67
2023/01/05 11:54:38;;;;;;;33.88;6.57;;;;;;;11.98;87.05;102028.94;4975626;28;20117;-67
2023/01/05 11:57:18;;;;;;;36.80;6.60;;;;;;;11.95;87.47;102030.63;4975431;28;20057;-68
2023/01/05 11:59:46;;;;;;;29.08;6.28;;;;;;;11.90;87.46;102027.84;4973845;28;20357;-68
2023/01/05 12:02:46;;;;;;;31.60;5.80;;;;;;;11.84;88.04;102019.78;4975562;28;20054;-67